createdAt,value
2019-03-22T00:01:32.302Z,1.00
2019-03-22T00:04:02.793Z,1.00
2019-03-22T00:06:33.310Z,1.00
2019-03-22T00:09:04.347Z,1.00
2019-03-22T00:11:34.863Z,1.00
2019-03-22T00:14:05.457Z,9.00
2019-03-22T00:16:35.956Z,1.00
2019-03-22T00:19:06.554Z,1.00
2019-03-22T00:21:37.062Z,1.00
2019-03-22T00:24:07.566Z,1.00
2019-03-22T00:26:38.068Z,1.00
2019-03-22T00:29:08.565Z,1.00
2019-03-22T00:31:39.062Z,1.00
2019-03-22T00:34:09.577Z,1.00
2019-03-22T00:36:40.083Z,1.00
2019-03-22T00:39:10.599Z,1.00
2019-03-22T00:41:41.090Z,1.00
2019-03-22T00:44:11.614Z,1.00
2019-03-22T00:46:42.140Z,1.00
2019-03-22T00:49:12.654Z,1.00
2019-03-22T00:51:43.169Z,2.40
2019-03-22T00:54:13.670Z,3.60
2019-03-22T00:56:44.247Z,4.10
2019-03-22T00:59:15.491Z,2.30
2019-03-22T01:01:45.992Z,4.30
2019-03-22T01:04:16.513Z,3.70
2019-03-22T01:06:47.002Z,1.80
2019-03-22T01:09:17.505Z,1.00
2019-03-22T01:11:48.030Z,1.00
2019-03-22T01:14:18.530Z,1.00
2019-03-22T01:16:49.044Z,1.00
2019-03-22T01:19:19.551Z,1.00
2019-03-22T01:21:50.065Z,1.00
2019-03-22T01:24:20.582Z,1.00
2019-03-22T01:26:51.074Z,1.00
2019-03-22T01:29:21.610Z,1.00
2019-03-22T01:31:52.488Z,1.00
2019-03-22T01:34:23.001Z,1.00
2019-03-22T01:36:54.069Z,1.00
2019-03-22T01:39:24.582Z,1.00
2019-03-22T01:41:55.117Z,1.00
2019-03-22T01:44:25.639Z,1.00
2019-03-22T01:46:56.228Z,1.00
2019-03-22T01:49:26.744Z,2.10
2019-03-22T01:51:57.266Z,2.70
2019-03-22T01:54:27.772Z,3.70
2019-03-22T01:56:58.293Z,4.40
2019-03-22T01:59:29.634Z,6.10
2019-03-22T02:02:00.123Z,7.20
2019-03-22T02:04:30.714Z,24.40
2019-03-22T02:07:01.210Z,1.00
2019-03-22T02:09:31.714Z,13.50
2019-03-22T02:12:02.309Z,12.60
2019-03-22T02:14:32.806Z,12.50
2019-03-22T02:17:03.330Z,13.70
2019-03-22T02:19:33.849Z,13.80
2019-03-22T02:22:04.371Z,16.60
2019-03-22T02:24:34.894Z,18.10
2019-03-22T02:27:05.465Z,19.90
2019-03-22T02:29:35.978Z,19.70
2019-03-22T02:32:06.529Z,22.90
2019-03-22T02:34:37.086Z,23.70
2019-03-22T02:37:07.592Z,21.10
2019-03-22T02:39:38.232Z,20.00
2019-03-22T02:42:08.720Z,19.90
2019-03-22T02:44:39.277Z,23.90
2019-03-22T02:47:09.783Z,27.80
2019-03-22T02:49:40.317Z,24.50
2019-03-22T02:52:10.989Z,22.00
2019-03-22T02:54:41.558Z,25.10
2019-03-22T02:57:12.070Z,21.20
2019-03-22T02:59:43.306Z,24.50
2019-03-22T03:02:13.944Z,27.50
2019-03-22T03:04:44.468Z,28.10
2019-03-22T03:07:15.067Z,28.70
2019-03-22T03:09:45.650Z,30.10
2019-03-22T03:12:16.103Z,30.80
2019-03-22T03:14:46.611Z,35.40
2019-03-22T03:17:17.158Z,36.80
2019-03-22T03:19:47.657Z,39.50
2019-03-22T03:22:18.182Z,45.50
2019-03-22T03:24:48.685Z,48.40
2019-03-22T03:27:19.219Z,48.90
2019-03-22T03:29:49.744Z,49.90
2019-03-22T03:32:20.243Z,47.40
2019-03-22T03:34:50.760Z,47.30
2019-03-22T03:37:21.307Z,44.80
2019-03-22T03:39:51.831Z,40.40
2019-03-22T03:42:22.414Z,63.60
2019-03-22T03:44:52.965Z,43.30
2019-03-22T03:47:23.471Z,41.90
2019-03-22T03:49:54.007Z,42.90
2019-03-22T03:52:24.529Z,44.00
2019-03-22T03:54:55.040Z,45.80
2019-03-22T03:57:25.562Z,49.00
2019-03-22T03:59:56.808Z,51.80
2019-03-22T04:02:27.299Z,51.30
2019-03-22T04:04:57.834Z,52.70
2019-03-22T04:07:28.347Z,53.30
2019-03-22T04:09:58.861Z,53.90
2019-03-22T04:12:29.375Z,56.30
2019-03-22T04:14:59.881Z,65.50
2019-03-22T04:17:30.719Z,80.40
2019-03-22T04:20:01.299Z,86.50
2019-03-22T04:22:36.207Z,99.90
2019-03-22T04:25:07.743Z,99.90
2019-03-22T04:27:38.265Z,99.90
2019-03-22T04:30:09.289Z,99.90
2019-03-22T04:32:39.799Z,99.90
2019-03-22T04:35:10.868Z,99.90
2019-03-22T04:37:41.389Z,99.90
2019-03-22T04:40:30.804Z,99.90
2019-03-22T04:43:01.390Z,99.90
2019-03-22T04:45:34.071Z,99.90
2019-03-22T04:48:27.056Z,93.50
2019-03-22T04:51:00.300Z,83.60
2019-03-22T04:53:35.450Z,58.80
2019-03-22T04:56:10.888Z,48.40
2019-03-22T04:58:46.807Z,43.00
2019-03-22T05:01:21.858Z,34.40
2019-03-22T05:03:54.715Z,37.20
2019-03-22T05:06:25.863Z,26.30
2019-03-22T05:08:59.581Z,28.30
2019-03-22T05:11:30.642Z,25.10
2019-03-22T05:14:15.533Z,22.20
2019-03-22T05:16:51.256Z,17.20
2019-03-22T05:19:26.138Z,31.80
2019-03-22T05:21:59.740Z,29.70
2019-03-22T05:24:32.193Z,11.10
2019-03-22T05:27:05.383Z,9.30
2019-03-22T05:29:39.082Z,12.20
2019-03-22T05:32:12.620Z,12.00
2019-03-22T05:34:43.461Z,13.50
2019-03-22T05:37:14.062Z,15.40
2019-03-22T05:39:44.692Z,16.30
2019-03-22T05:42:15.270Z,16.40
2019-03-22T05:44:45.874Z,16.50
2019-03-22T05:47:16.541Z,8.20
2019-03-22T05:49:47.106Z,4.80
2019-03-22T05:52:17.682Z,1.00
2019-03-22T05:54:48.220Z,1.00
2019-03-22T05:57:18.740Z,1.00
2019-03-22T05:59:49.603Z,1.00
2019-03-22T06:02:20.929Z,1.00
2019-03-22T06:04:51.541Z,1.00
2019-03-22T06:07:22.068Z,1.00
2019-03-22T06:09:52.602Z,1.00
2019-03-22T06:12:23.098Z,1.00
2019-03-22T06:14:53.626Z,1.00
2019-03-22T06:17:24.161Z,1.00
2019-03-22T06:19:54.691Z,1.00
2019-03-22T06:22:25.210Z,1.00
2019-03-22T06:24:55.707Z,1.00
2019-03-22T06:27:26.235Z,1.00
2019-03-22T06:29:58.321Z,1.00
2019-03-22T06:32:28.817Z,1.00
2019-03-22T06:34:59.354Z,1.00
2019-03-22T06:37:29.875Z,1.00
2019-03-22T06:40:00.476Z,1.00
2019-03-22T06:42:30.989Z,1.00
2019-03-22T06:45:01.494Z,1.00
2019-03-22T06:47:32.016Z,1.00
2019-03-22T06:50:02.540Z,1.00
2019-03-22T06:52:33.082Z,1.00
2019-03-22T06:55:05.312Z,1.00
2019-03-22T06:57:35.816Z,1.00
2019-03-22T07:00:10.639Z,1.00
2019-03-22T07:02:41.855Z,1.00
2019-03-22T07:05:13.640Z,1.00
2019-03-22T07:07:44.337Z,1.00
2019-03-22T07:10:15.011Z,1.00
2019-03-22T07:12:45.589Z,1.00
2019-03-22T07:15:16.238Z,1.00
2019-03-22T07:17:46.767Z,1.00
2019-03-22T07:20:17.473Z,1.00
2019-03-22T07:22:48.250Z,1.00
2019-03-22T07:25:18.829Z,1.00
2019-03-22T07:27:49.335Z,1.00
2019-03-22T07:30:20.477Z,1.00
2019-03-22T07:32:50.963Z,1.00
2019-03-22T07:35:21.467Z,1.00
2019-03-22T07:37:52.028Z,1.00
2019-03-22T07:40:22.783Z,1.00
2019-03-22T07:42:53.288Z,1.00
2019-03-22T07:45:23.879Z,1.00
2019-03-22T07:47:55.924Z,1.00
2019-03-22T07:50:26.487Z,1.00
2019-03-22T07:52:56.996Z,1.00
2019-03-22T07:55:27.523Z,1.00
2019-03-22T07:57:58.041Z,1.00
2019-03-22T08:00:31.022Z,1.00
2019-03-22T08:03:01.509Z,1.00
2019-03-22T08:05:32.288Z,1.00
2019-03-22T08:08:02.815Z,1.00
2019-03-22T08:10:33.337Z,1.00
2019-03-22T08:13:03.926Z,1.00
2019-03-22T08:15:34.508Z,1.00
2019-03-22T08:18:05.237Z,1.00
2019-03-22T08:20:38.622Z,1.00
2019-03-22T08:23:20.655Z,1.00
2019-03-22T08:25:51.384Z,1.00
2019-03-22T08:28:21.919Z,1.00
2019-03-22T08:31:10.414Z,1.00
2019-03-22T08:33:58.401Z,1.00
2019-03-22T08:36:46.683Z,1.00
2019-03-22T08:39:34.972Z,1.00
2019-03-22T08:42:23.132Z,1.00
2019-03-22T08:45:11.716Z,1.00
2019-03-22T08:47:59.644Z,1.00
2019-03-22T08:50:48.058Z,1.00
2019-03-22T08:53:36.001Z,1.00
2019-03-22T08:56:24.496Z,1.00
2019-03-22T08:59:13.514Z,1.00
2019-03-22T09:02:01.531Z,1.00
2019-03-22T09:04:50.408Z,1.00
2019-03-22T09:07:38.633Z,1.00
2019-03-22T09:10:26.753Z,1.00
2019-03-22T09:13:14.819Z,1.00
2019-03-22T09:16:02.938Z,1.00
2019-03-22T09:18:51.132Z,1.00
2019-03-22T09:21:39.508Z,1.00
2019-03-22T09:24:38.577Z,1.00
2019-03-22T09:27:17.292Z,1.00
2019-03-22T09:30:09.082Z,1.00
2019-03-22T09:32:56.761Z,1.00
2019-03-22T09:35:45.157Z,1.00
2019-03-22T09:38:33.848Z,1.00
2019-03-22T09:41:21.731Z,1.00
2019-03-22T09:44:09.731Z,1.00
2019-03-22T09:46:58.583Z,1.00
2019-03-22T09:49:47.385Z,1.00
2019-03-22T09:52:36.021Z,1.00
2019-03-22T09:55:24.570Z,1.00
2019-03-22T09:58:12.619Z,1.00
2019-03-22T10:01:01.037Z,1.00
2019-03-22T10:03:49.837Z,1.00
2019-03-22T10:06:39.257Z,1.00
2019-03-22T10:09:27.944Z,1.00
2019-03-22T10:12:15.873Z,1.00
2019-03-22T10:15:06.420Z,1.00
2019-03-22T10:17:54.306Z,1.00
2019-03-22T10:20:42.221Z,1.00
2019-03-22T10:23:31.018Z,1.00
2019-03-22T10:26:19.969Z,1.00
2019-03-22T14:59:31.352Z,1.00
2019-03-22T15:02:01.913Z,1.00
2019-03-22T15:07:27.743Z,1.00
2019-03-22T15:09:58.401Z,1.00
2019-03-22T15:12:29.573Z,1.00
2019-03-22T15:15:25.033Z,1.00
2019-03-22T15:18:02.325Z,1.00
2019-03-22T15:20:39.473Z,1.00
2019-03-22T15:26:06.867Z,1.00
2019-03-22T15:55:11.247Z,1.00
2019-03-22T16:46:44.998Z,1.00
2019-03-22T16:49:33.808Z,1.00
2019-03-22T16:52:03.352Z,1.00
2019-03-22T16:54:34.896Z,1.00
2019-03-22T16:57:05.880Z,1.00
2019-03-22T16:59:39.902Z,1.00
2019-03-22T17:02:10.850Z,1.00
2019-03-22T17:04:44.889Z,1.00
2019-03-22T17:07:17.928Z,1.00
2019-03-22T17:09:49.188Z,1.00
2019-03-22T18:29:29.576Z,24.40
2019-03-22T19:31:27.785Z,49.80
2019-03-22T19:33:58.603Z,46.90
2019-03-22T22:18:12.684Z,99.90
2019-03-22T22:20:44.953Z,99.90
2019-03-22T22:23:17.274Z,99.90
2019-03-22T22:25:49.614Z,99.90
2019-03-22T22:28:37.120Z,99.90
2019-03-22T22:36:00.418Z,99.90
2019-03-22T22:46:59.892Z,99.90
2019-03-22T22:49:48.329Z,99.90
2019-03-22T22:56:10.309Z,99.90
2019-03-22T23:24:14.607Z,99.90
2019-03-22T23:27:14.263Z,99.90
2019-03-22T23:29:57.042Z,99.90
2019-03-22T23:40:22.858Z,99.90
2019-03-22T23:43:46.047Z,99.90
2019-03-22T23:46:37.631Z,99.90
2019-03-22T23:49:22.603Z,99.90
2019-03-22T23:52:05.635Z,99.90
2019-03-22T23:54:47.115Z,99.90
2019-03-22T23:57:49.102Z,99.90
